createdAt,value
2023-03-27T00:01:15.293Z,6.30
2023-03-27T00:03:44.033Z,6.10
2023-03-27T00:06:16.257Z,7.63
2023-03-27T00:08:44.330Z,8.47
2023-03-27T00:11:13.728Z,5.07
2023-03-27T00:13:49.352Z,8.33
2023-03-27T00:16:18.870Z,5.67
2023-03-27T00:18:46.854Z,6.17
2023-03-27T00:21:15.129Z,7.73
2023-03-27T00:23:43.628Z,6.70
2023-03-27T00:26:13.320Z,9.20
2023-03-27T00:28:41.410Z,20.13
2023-03-27T00:31:11.357Z,25.07
2023-03-27T00:33:39.568Z,28.27
2023-03-27T00:36:07.960Z,30.23
2023-03-27T00:38:36.069Z,28.43
2023-03-27T00:41:04.771Z,32.83
2023-03-27T00:43:34.699Z,33.20
2023-03-27T00:46:03.692Z,34.67
2023-03-27T00:48:32.734Z,34.70
2023-03-27T00:51:00.429Z,32.87
2023-03-27T00:53:29.371Z,34.20
2023-03-27T00:55:58.607Z,35.93
2023-03-27T00:58:28.209Z,35.13
2023-03-27T01:00:58.290Z,33.63
2023-03-27T01:03:28.456Z,36.63
2023-03-27T01:05:56.166Z,33.83
2023-03-27T01:08:24.833Z,31.23
2023-03-27T01:10:57.440Z,29.53
2023-03-27T01:13:33.329Z,29.47
2023-03-27T01:16:05.647Z,28.47
2023-03-27T01:18:38.923Z,25.30
2023-03-27T01:21:33.279Z,31.17
2023-03-27T01:24:50.216Z,26.07
2023-03-27T01:27:19.481Z,26.70
2023-03-27T01:30:01.753Z,28.03
2023-03-27T01:33:07.093Z,26.97
2023-03-27T01:36:05.794Z,27.67
2023-03-27T01:39:07.379Z,25.97
2023-03-27T01:41:40.074Z,24.43
2023-03-27T01:44:12.841Z,23.63
2023-03-27T01:46:43.012Z,21.77
2023-03-27T01:49:12.822Z,23.20
2023-03-27T01:51:41.747Z,22.63
2023-03-27T01:54:11.321Z,20.50
2023-03-27T01:56:42.226Z,18.57
2023-03-27T01:59:11.275Z,20.40
2023-03-27T02:01:40.914Z,18.90
2023-03-27T02:04:10.395Z,16.67
2023-03-27T02:06:39.361Z,17.20
2023-03-27T02:09:09.108Z,18.50
2023-03-27T02:11:38.531Z,19.97
2023-03-27T02:14:09.971Z,16.20
2023-03-27T02:16:42.406Z,16.27
2023-03-27T02:19:13.106Z,15.30
2023-03-27T02:21:41.018Z,16.27
2023-03-27T02:24:08.961Z,16.47
2023-03-27T02:26:37.192Z,14.00
2023-03-27T02:29:27.824Z,13.47
2023-03-27T02:32:02.591Z,12.70
2023-03-27T02:34:43.391Z,11.97
2023-03-27T02:37:17.588Z,12.00
2023-03-27T02:39:48.941Z,13.80
2023-03-27T02:42:19.026Z,12.83
2023-03-27T02:44:51.640Z,10.70
2023-03-27T02:47:23.586Z,11.90
2023-03-27T02:49:52.847Z,11.73
2023-03-27T02:52:24.360Z,11.87
2023-03-27T02:54:53.321Z,11.43
2023-03-27T02:57:24.930Z,11.30
2023-03-27T02:59:55.826Z,11.37
2023-03-27T03:02:25.573Z,10.40
2023-03-27T03:04:58.147Z,9.70
2023-03-27T03:07:26.882Z,9.50
2023-03-27T03:09:54.882Z,7.13
2023-03-27T03:12:23.588Z,9.40
2023-03-27T03:14:52.168Z,7.33
2023-03-27T03:17:22.313Z,7.33
2023-03-27T03:19:50.116Z,6.50
2023-03-27T03:22:18.124Z,8.33
2023-03-27T03:24:46.065Z,10.20
2023-03-27T03:27:14.665Z,7.20
2023-03-27T03:29:44.196Z,8.10
2023-03-27T03:32:12.615Z,7.70
2023-03-27T03:34:46.483Z,7.27
2023-03-27T03:37:14.232Z,7.57
2023-03-27T03:39:42.325Z,7.70
2023-03-27T03:42:10.290Z,7.63
2023-03-27T03:44:51.052Z,6.33
2023-03-27T03:47:19.033Z,6.63
2023-03-27T03:49:48.833Z,6.40
2023-03-27T03:52:16.664Z,6.13
2023-03-27T03:54:46.673Z,4.97
2023-03-27T03:57:15.412Z,6.77
2023-03-27T03:59:43.639Z,7.00
2023-03-27T04:02:12.885Z,5.50
2023-03-27T04:04:43.778Z,6.60
2023-03-27T04:07:18.104Z,5.10
2023-03-27T04:09:46.065Z,5.10
2023-03-27T04:12:14.344Z,4.37
2023-03-27T04:14:42.455Z,4.70
2023-03-27T04:17:11.338Z,5.63
2023-03-27T04:19:39.371Z,4.70
2023-03-27T04:22:07.437Z,3.70
2023-03-27T04:24:37.620Z,3.87
2023-03-27T04:27:05.741Z,3.87
2023-03-27T04:29:34.310Z,4.73
2023-03-27T04:32:02.405Z,3.63
2023-03-27T04:34:30.705Z,3.87
2023-03-27T04:36:58.635Z,3.63
2023-03-27T04:39:27.006Z,5.53
2023-03-27T04:41:58.383Z,7.47
2023-03-27T04:44:26.245Z,5.23
2023-03-27T04:46:54.172Z,3.63
2023-03-27T04:49:22.462Z,4.10
2023-03-27T04:51:50.184Z,3.40
2023-03-27T04:54:18.381Z,4.37
2023-03-27T04:56:47.179Z,3.93
2023-03-27T04:59:16.514Z,2.80
2023-03-27T05:01:44.938Z,4.70
2023-03-27T05:04:12.761Z,5.33
2023-03-27T05:06:41.658Z,6.53
2023-03-27T05:09:10.003Z,2.23
2023-03-27T05:11:38.384Z,3.10
2023-03-27T05:14:06.130Z,2.43
2023-03-27T05:16:36.128Z,3.20
2023-03-27T05:19:05.010Z,3.33
2023-03-27T05:21:32.860Z,2.37
2023-03-27T05:24:01.016Z,5.03
2023-03-27T05:26:28.740Z,5.13
2023-03-27T05:28:58.901Z,2.80
2023-03-27T05:31:27.977Z,3.33
2023-03-27T05:33:58.539Z,3.20
2023-03-27T05:36:27.514Z,3.00
2023-03-27T05:38:56.562Z,3.67
2023-03-27T05:41:24.850Z,2.10
2023-03-27T05:43:52.924Z,2.10
2023-03-27T05:46:21.716Z,2.37
2023-03-27T05:48:49.696Z,2.57
2023-03-27T05:51:19.415Z,2.33
2023-03-27T05:53:47.157Z,1.70
2023-03-27T05:56:15.247Z,1.90
2023-03-27T05:58:43.008Z,2.07
2023-03-27T06:01:12.288Z,3.73
2023-03-27T06:03:40.297Z,2.00
2023-03-27T06:06:08.963Z,2.60
2023-03-27T06:08:38.742Z,3.10
2023-03-27T06:11:09.786Z,2.10
2023-03-27T06:13:38.118Z,4.47
2023-03-27T06:16:07.019Z,2.87
2023-03-27T06:18:35.532Z,1.77
2023-03-27T06:21:03.551Z,3.20
2023-03-27T06:23:32.353Z,2.80
2023-03-27T06:26:02.013Z,2.23
2023-03-27T06:28:30.431Z,1.60
2023-03-27T06:30:59.699Z,2.20
2023-03-27T06:33:28.557Z,2.90
2023-03-27T06:36:00.726Z,2.80
2023-03-27T06:38:29.992Z,1.60
2023-03-27T06:40:59.522Z,1.40
2023-03-27T06:43:28.947Z,3.50
2023-03-27T06:45:57.114Z,2.30
2023-03-27T06:48:25.214Z,2.07
2023-03-27T06:50:54.508Z,1.53
2023-03-27T06:53:27.941Z,2.60
2023-03-27T06:55:57.145Z,1.63
2023-03-27T06:58:25.977Z,1.53
2023-03-27T07:00:55.375Z,2.33
2023-03-27T07:03:24.300Z,4.47
2023-03-27T07:05:52.233Z,1.70
2023-03-27T07:08:24.942Z,1.97
2023-03-27T07:13:25.380Z,2.10
2023-03-27T07:15:53.668Z,4.57
2023-03-27T07:18:23.117Z,1.80
2023-03-27T07:20:51.387Z,2.10
2023-03-27T07:23:19.397Z,1.30
2023-03-27T07:25:49.893Z,1.73
2023-03-27T07:28:18.569Z,2.17
2023-03-27T07:30:46.629Z,2.30
2023-03-27T07:33:15.434Z,1.27
2023-03-27T07:35:45.262Z,4.27
2023-03-27T07:38:14.662Z,1.53
2023-03-27T07:40:43.972Z,2.70
2023-03-27T07:43:12.741Z,2.13
2023-03-27T07:45:41.217Z,2.40
2023-03-27T07:48:09.944Z,1.40
2023-03-27T07:50:38.660Z,1.30
2023-03-27T07:53:08.210Z,1.87
2023-03-27T07:55:38.022Z,1.40
2023-03-27T07:58:07.015Z,2.60
2023-03-27T08:00:36.190Z,1.47
2023-03-27T08:03:07.785Z,1.80
2023-03-27T08:05:39.133Z,1.87
2023-03-27T08:08:14.066Z,1.60
2023-03-27T08:10:41.936Z,1.27
2023-03-27T08:13:10.615Z,1.10
2023-03-27T08:15:38.512Z,1.47
2023-03-27T08:18:07.255Z,2.17
2023-03-27T08:20:35.711Z,1.40
2023-03-27T08:23:04.270Z,2.67
2023-03-27T08:25:34.735Z,7.63
2023-03-27T08:28:03.069Z,2.97
2023-03-27T08:30:31.778Z,16.47
2023-03-27T08:33:00.052Z,3.80
2023-03-27T08:35:28.675Z,15.20
2023-03-27T08:37:56.417Z,5.03
2023-03-27T08:40:26.222Z,5.50
2023-03-27T08:42:56.797Z,8.97
2023-03-27T08:45:27.108Z,7.03
2023-03-27T08:47:57.845Z,7.13
2023-03-27T08:50:32.260Z,5.73
2023-03-27T08:53:00.872Z,5.80
2023-03-27T08:55:34.878Z,23.37
2023-03-27T08:58:04.185Z,12.97
2023-03-27T09:00:35.362Z,5.93
2023-03-27T09:03:06.606Z,9.00
2023-03-27T09:05:36.681Z,3.43
2023-03-27T09:08:06.151Z,5.73
2023-03-27T09:10:35.836Z,12.37
2023-03-27T09:13:10.102Z,2.90
2023-03-27T09:15:39.447Z,16.97
2023-03-27T09:18:08.367Z,5.47
2023-03-27T09:20:37.708Z,4.63
2023-03-27T09:23:10.993Z,4.30
2023-03-27T09:25:40.258Z,7.00
2023-03-27T09:28:15.981Z,4.90
2023-03-27T09:30:44.011Z,3.13
2023-03-27T09:33:12.378Z,6.90
2023-03-27T09:35:41.173Z,12.23
2023-03-27T09:38:29.239Z,6.43
2023-03-27T09:40:59.659Z,3.77
2023-03-27T09:43:31.852Z,3.97
2023-03-27T09:45:59.899Z,3.60
2023-03-27T09:48:32.989Z,2.73
2023-03-27T09:51:02.534Z,1.60
2023-03-27T09:53:30.832Z,4.10
2023-03-27T09:56:01.083Z,2.63
2023-03-27T09:58:34.992Z,3.27
2023-03-27T10:01:17.589Z,2.63
2023-03-27T10:03:50.135Z,2.03
2023-03-27T10:06:25.862Z,4.07
2023-03-27T10:08:55.376Z,2.00
2023-03-27T10:11:24.297Z,2.83
2023-03-27T10:13:53.650Z,5.23
2023-03-27T10:16:24.668Z,1.77
2023-03-27T10:18:55.608Z,2.00
2023-03-27T10:21:28.858Z,4.47
2023-03-27T10:24:01.903Z,6.43
2023-03-27T10:26:30.067Z,4.57
2023-03-27T10:29:02.752Z,3.20
2023-03-27T10:31:32.129Z,2.13
2023-03-27T10:34:02.252Z,3.70
2023-03-27T10:36:34.428Z,13.00
2023-03-27T10:39:03.716Z,2.97
2023-03-27T10:41:31.418Z,7.90
2023-03-27T10:44:00.673Z,5.90
2023-03-27T10:46:29.247Z,6.43
2023-03-27T10:49:01.543Z,6.10
2023-03-27T10:51:45.608Z,5.33
2023-03-27T10:54:18.170Z,8.53
2023-03-27T10:56:51.921Z,5.13
2023-03-27T10:59:34.508Z,5.33
2023-03-27T11:02:13.964Z,6.57
2023-03-27T11:04:58.827Z,2.90
2023-03-27T11:07:34.137Z,1.33
2023-03-27T11:10:04.571Z,1.90
2023-03-27T11:13:07.449Z,1.97
2023-03-27T11:15:39.727Z,5.80
2023-03-27T11:18:10.852Z,2.43
2023-03-27T11:20:44.493Z,4.20
2023-03-27T11:23:14.598Z,1.73
2023-03-27T11:25:44.723Z,1.00
2023-03-27T11:28:19.335Z,5.77
2023-03-27T11:30:50.580Z,1.93
2023-03-27T11:33:39.444Z,2.90
2023-03-27T11:36:32.756Z,2.37
2023-03-27T11:39:06.643Z,4.60
2023-03-27T11:41:37.543Z,4.13
2023-03-27T11:44:08.400Z,2.40
2023-03-27T11:46:47.923Z,2.97
2023-03-27T11:49:35.074Z,14.90
2023-03-27T11:52:08.664Z,6.53
2023-03-27T11:54:47.947Z,7.67
2023-03-27T11:57:21.560Z,5.57
2023-03-27T12:00:06.172Z,13.20
2023-03-27T12:03:01.716Z,11.90
2023-03-27T12:05:38.522Z,2.83
2023-03-27T12:08:09.215Z,6.63
2023-03-27T12:10:38.417Z,11.83
2023-03-27T12:13:38.570Z,5.60
2023-03-27T12:16:27.409Z,9.23
2023-03-27T12:19:05.930Z,6.10
2023-03-27T12:21:54.550Z,6.70
2023-03-27T12:24:35.625Z,3.40
2023-03-27T12:27:20.107Z,3.60
2023-03-27T12:30:06.082Z,4.77
2023-03-27T12:32:55.396Z,5.00
2023-03-27T12:35:27.123Z,4.13
2023-03-27T12:37:58.544Z,3.33
2023-03-27T12:40:29.508Z,2.70
2023-03-27T12:43:07.032Z,8.47
2023-03-27T12:45:38.930Z,19.13
2023-03-27T12:48:19.944Z,12.40
2023-03-27T12:50:56.116Z,8.17
2023-03-27T12:53:47.261Z,6.07
2023-03-27T12:56:33.168Z,8.50
2023-03-27T12:59:01.333Z,2.43
2023-03-27T13:01:52.712Z,6.20
2023-03-27T13:04:41.593Z,5.80
2023-03-27T13:07:12.194Z,9.33
2023-03-27T13:09:48.903Z,3.40
2023-03-27T13:12:38.637Z,5.67
2023-03-27T13:15:19.519Z,8.43
2023-03-27T13:17:58.588Z,5.00
2023-03-27T13:20:30.506Z,5.40
2023-03-27T13:23:08.773Z,3.60
2023-03-27T13:25:48.173Z,8.20
2023-03-27T13:28:31.307Z,10.53
2023-03-27T13:31:00.048Z,5.17
2023-03-27T13:33:38.985Z,2.30
2023-03-27T13:36:12.118Z,2.47
2023-03-27T13:39:24.830Z,4.20
2023-03-27T13:42:05.997Z,6.83
2023-03-27T13:44:56.300Z,8.07
2023-03-27T13:48:15.247Z,3.97
2023-03-27T13:51:21.869Z,11.67
2023-03-27T13:53:58.634Z,17.17
2023-03-27T13:56:34.241Z,8.97
2023-03-27T13:59:28.174Z,12.20
2023-03-27T14:02:01.091Z,5.13
2023-03-27T14:04:57.302Z,5.93
2023-03-27T14:07:56.244Z,5.30
2023-03-27T14:10:32.682Z,7.90
2023-03-27T14:13:09.156Z,6.00
2023-03-27T14:15:47.730Z,2.30
2023-03-27T14:18:30.157Z,4.80
2023-03-27T14:20:58.110Z,4.43
2023-03-27T14:23:28.454Z,2.77
2023-03-27T14:26:00.153Z,4.50
2023-03-27T14:28:32.680Z,5.07
2023-03-27T14:31:02.825Z,9.30
2023-03-27T14:33:30.851Z,7.33
2023-03-27T14:36:03.336Z,4.30
2023-03-27T14:38:32.311Z,8.27
2023-03-27T14:41:00.916Z,5.40
2023-03-27T14:43:30.544Z,2.30
2023-03-27T14:46:01.294Z,4.90
2023-03-27T14:48:31.256Z,4.03
2023-03-27T14:51:01.840Z,3.93
2023-03-27T14:53:31.421Z,2.10
2023-03-27T14:56:05.785Z,5.73
2023-03-27T14:58:35.417Z,3.73
2023-03-27T15:01:03.299Z,14.27
2023-03-27T15:03:35.372Z,7.13
2023-03-27T15:06:04.645Z,7.80
2023-03-27T15:08:36.928Z,5.80
2023-03-27T15:11:07.312Z,9.40
2023-03-27T15:13:36.941Z,5.63
2023-03-27T15:16:06.622Z,6.13
2023-03-27T15:18:36.481Z,6.37
2023-03-27T15:21:05.288Z,10.30
2023-03-27T15:23:36.820Z,6.23
2023-03-27T15:26:06.447Z,9.77
2023-03-27T15:28:38.112Z,3.17
2023-03-27T15:31:06.994Z,13.17
2023-03-27T15:33:36.699Z,7.80
2023-03-27T15:36:06.232Z,7.20
2023-03-27T15:38:34.558Z,4.83
2023-03-27T15:41:03.798Z,5.10
2023-03-27T15:43:32.116Z,3.73
2023-03-27T15:46:13.535Z,4.10
2023-03-27T15:48:44.040Z,4.37
2023-03-27T15:51:12.618Z,2.93
2023-03-27T15:53:41.209Z,2.87
2023-03-27T15:56:16.859Z,3.07
2023-03-27T15:58:47.210Z,1.97
2023-03-27T16:01:20.016Z,2.63
2023-03-27T16:03:50.457Z,3.43
2023-03-27T16:06:26.960Z,1.53
2023-03-27T16:08:54.917Z,1.80
2023-03-27T16:11:37.423Z,3.83
2023-03-27T16:14:05.391Z,3.83
2023-03-27T16:16:35.097Z,3.93
2023-03-27T16:19:03.340Z,5.50
2023-03-27T16:21:36.211Z,3.40
2023-03-27T16:24:04.111Z,2.33
2023-03-27T16:26:34.008Z,4.60
2023-03-27T16:29:02.687Z,3.50
2023-03-27T16:31:30.434Z,3.10
2023-03-27T16:33:59.914Z,5.33
2023-03-27T16:36:29.988Z,3.07
2023-03-27T16:38:57.884Z,8.07
2023-03-27T16:41:25.756Z,2.60
2023-03-27T16:43:53.649Z,2.47
2023-03-27T16:46:22.798Z,1.93
2023-03-27T16:48:51.754Z,5.07
2023-03-27T16:51:20.982Z,2.70
2023-03-27T16:53:48.995Z,5.00
2023-03-27T16:56:17.133Z,3.80
2023-03-27T16:58:45.154Z,2.70
2023-03-27T17:01:13.575Z,6.50
2023-03-27T17:03:42.284Z,4.10
2023-03-27T17:06:11.571Z,4.47
2023-03-27T17:08:41.234Z,2.83
2023-03-27T17:11:10.779Z,5.20
2023-03-27T17:13:40.931Z,2.80
2023-03-27T17:16:11.373Z,5.30
2023-03-27T17:18:39.440Z,2.77
2023-03-27T17:21:08.324Z,3.33
2023-03-27T17:23:36.557Z,3.40
2023-03-27T17:26:07.131Z,3.10
2023-03-27T17:28:36.246Z,11.43
2023-03-27T17:31:05.536Z,3.60
2023-03-27T17:33:36.799Z,2.70
2023-03-27T17:36:09.788Z,4.03
2023-03-27T17:38:38.089Z,5.37
2023-03-27T17:41:08.561Z,6.87
2023-03-27T17:43:36.696Z,2.40
2023-03-27T17:46:04.739Z,9.63
2023-03-27T17:48:34.039Z,1.93
2023-03-27T17:51:09.021Z,3.07
2023-03-27T17:53:38.118Z,2.00
2023-03-27T17:56:08.652Z,6.10
2023-03-27T17:58:37.141Z,5.10
2023-03-27T18:01:23.152Z,8.03
2023-03-27T18:03:51.766Z,3.70
2023-03-27T18:06:20.049Z,2.80
2023-03-27T18:08:48.080Z,3.43
2023-03-27T18:11:17.814Z,6.90
2023-03-27T18:13:51.283Z,5.10
2023-03-27T18:16:20.031Z,5.70
2023-03-27T18:18:48.075Z,3.63
2023-03-27T18:21:16.667Z,5.10
2023-03-27T18:23:45.994Z,4.57
2023-03-27T18:26:15.289Z,6.60
2023-03-27T18:28:44.816Z,4.30
2023-03-27T18:31:13.607Z,4.20
2023-03-27T18:33:41.757Z,5.20
2023-03-27T18:36:12.041Z,2.50
2023-03-27T18:38:40.809Z,2.30
2023-03-27T18:41:09.247Z,3.27
2023-03-27T18:43:37.361Z,8.70
2023-03-27T18:46:07.555Z,2.97
2023-03-27T18:48:35.777Z,5.43
2023-03-27T18:51:04.484Z,3.40
2023-03-27T18:53:32.401Z,3.40
2023-03-27T18:56:00.596Z,9.90
2023-03-27T18:58:29.292Z,4.40
2023-03-27T19:00:57.605Z,5.43
2023-03-27T19:03:30.347Z,3.37
2023-03-27T19:06:01.118Z,7.53
2023-03-27T19:08:29.648Z,6.53
2023-03-27T19:10:58.526Z,4.80
2023-03-27T19:13:26.714Z,4.77
2023-03-27T19:15:54.848Z,5.80
2023-03-27T19:18:25.195Z,5.87
2023-03-27T19:20:55.982Z,5.60
2023-03-27T19:23:24.005Z,3.90
2023-03-27T19:25:51.807Z,6.13
2023-03-27T19:28:20.528Z,6.43
2023-03-27T19:30:50.840Z,6.47
2023-03-27T19:33:18.814Z,6.33
2023-03-27T19:35:46.878Z,6.30
2023-03-27T19:38:16.613Z,4.17
2023-03-27T19:40:46.260Z,8.67
2023-03-27T19:43:14.176Z,11.53
2023-03-27T19:45:42.258Z,8.93
2023-03-27T19:48:10.358Z,6.20
2023-03-27T19:50:38.368Z,8.90
2023-03-27T19:53:09.033Z,6.20
2023-03-27T19:55:38.781Z,4.97
2023-03-27T19:58:06.683Z,10.77
2023-03-27T20:00:35.024Z,5.70
2023-03-27T20:03:03.213Z,6.20
2023-03-27T20:05:31.967Z,8.30
2023-03-27T20:08:00.181Z,6.97
2023-03-27T20:10:28.439Z,7.47
2023-03-27T20:12:57.760Z,13.17
2023-03-27T20:15:26.154Z,7.70
2023-03-27T20:17:54.230Z,8.83
2023-03-27T20:20:22.241Z,7.60
2023-03-27T20:22:58.608Z,6.53
2023-03-27T20:25:28.418Z,9.90
2023-03-27T20:27:58.079Z,10.97
2023-03-27T20:30:26.448Z,7.77
2023-03-27T20:32:54.496Z,10.10
2023-03-27T20:35:24.720Z,13.33
2023-03-27T20:37:57.806Z,9.37
2023-03-27T20:40:26.366Z,13.10
2023-03-27T20:43:03.564Z,8.00
2023-03-27T20:45:33.305Z,12.43
2023-03-27T20:48:04.158Z,11.40
2023-03-27T20:50:35.195Z,9.93
2023-03-27T20:53:05.042Z,8.57
2023-03-27T20:55:39.319Z,7.60
2023-03-27T20:58:09.647Z,9.50
2023-03-27T21:00:39.194Z,10.00
2023-03-27T21:03:07.898Z,15.40
2023-03-27T21:05:38.352Z,9.90
2023-03-27T21:08:07.450Z,11.43
2023-03-27T21:10:35.401Z,8.20
2023-03-27T21:13:03.410Z,9.10
2023-03-27T21:15:32.040Z,15.70
2023-03-27T21:18:01.554Z,12.50
2023-03-27T21:20:29.323Z,9.27
2023-03-27T21:22:57.662Z,12.53
2023-03-27T21:25:25.613Z,12.47
2023-03-27T21:27:54.017Z,11.30
2023-03-27T21:30:22.651Z,10.53
2023-03-27T21:32:51.136Z,10.10
2023-03-27T21:35:21.044Z,10.93
2023-03-27T21:37:48.853Z,13.20
2023-03-27T21:40:16.687Z,8.83
2023-03-27T21:42:44.531Z,9.10
2023-03-27T21:45:12.543Z,12.73
2023-03-27T21:47:47.569Z,11.47
2023-03-27T21:50:16.282Z,11.67
2023-03-27T21:52:45.767Z,10.50
2023-03-27T21:55:13.686Z,14.37
2023-03-27T21:57:41.630Z,8.17
2023-03-27T22:00:10.503Z,12.07
2023-03-27T22:02:38.413Z,8.83
2023-03-27T22:05:07.427Z,11.80
2023-03-27T22:07:35.268Z,10.93
2023-03-27T22:10:06.199Z,11.60
2023-03-27T22:12:36.049Z,11.33
2023-03-27T22:15:04.441Z,8.93
2023-03-27T22:17:32.385Z,9.17
2023-03-27T22:20:00.574Z,9.40
2023-03-27T22:22:28.623Z,8.80
2023-03-27T22:24:56.737Z,9.90
2023-03-27T22:27:26.554Z,9.87
2023-03-27T22:29:54.630Z,7.03
2023-03-27T22:32:22.650Z,9.70
2023-03-27T22:34:50.779Z,8.30
2023-03-27T22:37:19.669Z,11.03
2023-03-27T22:39:47.965Z,6.87
2023-03-27T22:42:16.027Z,8.83
2023-03-27T22:44:45.540Z,9.63
2023-03-27T22:47:13.871Z,8.57
2023-03-27T22:49:41.987Z,11.60
2023-03-27T22:52:10.482Z,7.90
2023-03-27T22:54:38.442Z,10.70
2023-03-27T22:57:06.735Z,17.00
2023-03-27T22:59:34.675Z,14.83
2023-03-27T23:02:04.343Z,20.40
2023-03-27T23:04:32.406Z,16.50
2023-03-27T23:07:01.582Z,18.23
2023-03-27T23:09:29.571Z,19.87
2023-03-27T23:11:57.537Z,19.20
2023-03-27T23:14:25.446Z,14.57
2023-03-27T23:16:53.875Z,20.17
2023-03-27T23:19:23.341Z,22.33
2023-03-27T23:21:53.540Z,21.90
2023-03-27T23:24:21.604Z,20.50
2023-03-27T23:26:49.688Z,21.00
2023-03-27T23:29:18.185Z,20.47
2023-03-27T23:31:46.290Z,20.23
2023-03-27T23:34:17.624Z,18.93
2023-03-27T23:36:53.270Z,16.80
2023-03-27T23:39:28.343Z,15.63
2023-03-27T23:42:02.691Z,17.43
2023-03-27T23:44:30.985Z,17.60
2023-03-27T23:46:59.055Z,19.60
2023-03-27T23:49:27.027Z,18.90
2023-03-27T23:51:56.489Z,19.20
2023-03-27T23:54:24.656Z,21.07
2023-03-27T23:56:53.038Z,18.30
2023-03-27T23:59:21.385Z,17.37
